sensor_id;sensor_type;location;lat;lon;timestamp;P1;durP1;ratioP1;P2;durP2;ratioP2
66575;SDS011;53428;47.686;16.584;2023-12-20T00:02:28;91.57;;;34.42;;
66575;SDS011;53428;47.686;16.584;2023-12-20T00:07:27;79.38;;;32.95;;
66575;SDS011;53428;47.686;16.584;2023-12-20T00:12:27;92.38;;;33.00;;
66575;SDS011;53428;47.686;16.584;2023-12-20T00:17:26;107.97;;;32.80;;
66575;SDS011;53428;47.686;16.584;2023-12-20T00:22:25;76.45;;;30.13;;
66575;SDS011;53428;47.686;16.584;2023-12-20T00:27:25;66.53;;;29.98;;
66575;SDS011;53428;47.686;16.584;2023-12-20T00:32:24;64.68;;;27.48;;
66575;SDS011;53428;47.686;16.584;2023-12-20T00:37:23;72.63;;;29.42;;
66575;SDS011;53428;47.686;16.584;2023-12-20T00:42:23;64.63;;;27.52;;
66575;SDS011;53428;47.686;16.584;2023-12-20T00:47:22;59.97;;;26.95;;
66575;SDS011;53428;47.686;16.584;2023-12-20T00:52:21;60.92;;;25.85;;
66575;SDS011;53428;47.686;16.584;2023-12-20T00:57:21;52.60;;;24.70;;
66575;SDS011;53428;47.686;16.584;2023-12-20T01:02:20;63.00;;;26.08;;
66575;SDS011;53428;47.686;16.584;2023-12-20T01:07:20;58.53;;;25.70;;
66575;SDS011;53428;47.686;16.584;2023-12-20T01:12:20;83.85;;;28.67;;
66575;SDS011;53428;47.686;16.584;2023-12-20T01:17:19;70.53;;;28.00;;
66575;SDS011;53428;47.686;16.584;2023-12-20T01:22:18;92.13;;;30.85;;
66575;SDS011;53428;47.686;16.584;2023-12-20T01:27:18;48.03;;;24.90;;
66575;SDS011;53428;47.686;16.584;2023-12-20T01:32:17;53.20;;;25.05;;
66575;SDS011;53428;47.686;16.584;2023-12-20T01:37:16;50.97;;;24.02;;
66575;SDS011;53428;47.686;16.584;2023-12-20T01:42:16;56.78;;;23.30;;
66575;SDS011;53428;47.686;16.584;2023-12-20T01:47:15;71.00;;;23.77;;
66575;SDS011;53428;47.686;16.584;2023-12-20T01:52:15;44.78;;;19.08;;
66575;SDS011;53428;47.686;16.584;2023-12-20T01:57:16;63.83;;;22.98;;
66575;SDS011;53428;47.686;16.584;2023-12-20T02:02:15;78.38;;;21.92;;
66575;SDS011;53428;47.686;16.584;2023-12-20T02:07:15;46.35;;;21.13;;
66575;SDS011;53428;47.686;16.584;2023-12-20T02:12:15;122.45;;;24.50;;
66575;SDS011;53428;47.686;16.584;2023-12-20T02:17:15;123.85;;;23.73;;
66575;SDS011;53428;47.686;16.584;2023-12-20T02:22:15;76.50;;;22.33;;
66575;SDS011;53428;47.686;16.584;2023-12-20T02:27:14;130.60;;;24.23;;
66575;SDS011;53428;47.686;16.584;2023-12-20T02:32:17;139.63;;;24.67;;
66575;SDS011;53428;47.686;16.584;2023-12-20T02:37:17;55.58;;;21.15;;
66575;SDS011;53428;47.686;16.584;2023-12-20T02:42:16;61.38;;;21.75;;
66575;SDS011;53428;47.686;16.584;2023-12-20T02:47:15;97.63;;;24.63;;
66575;SDS011;53428;47.686;16.584;2023-12-20T02:52:15;169.35;;;26.95;;
66575;SDS011;53428;47.686;16.584;2023-12-20T02:57:14;121.00;;;22.02;;
66575;SDS011;53428;47.686;16.584;2023-12-20T03:02:14;91.55;;;24.17;;
66575;SDS011;53428;47.686;16.584;2023-12-20T03:07:13;118.18;;;24.08;;
66575;SDS011;53428;47.686;16.584;2023-12-20T03:12:13;46.92;;;20.65;;
66575;SDS011;53428;47.686;16.584;2023-12-20T03:17:12;106.05;;;25.83;;
66575;SDS011;53428;47.686;16.584;2023-12-20T03:22:11;56.78;;;22.70;;
66575;SDS011;53428;47.686;16.584;2023-12-20T03:27:10;82.95;;;25.60;;
66575;SDS011;53428;47.686;16.584;2023-12-20T03:32:10;44.40;;;22.00;;
66575;SDS011;53428;47.686;16.584;2023-12-20T03:37:09;68.47;;;23.35;;
66575;SDS011;53428;47.686;16.584;2023-12-20T03:42:08;61.97;;;21.55;;
66575;SDS011;53428;47.686;16.584;2023-12-20T03:47:07;76.25;;;24.52;;
66575;SDS011;53428;47.686;16.584;2023-12-20T03:52:06;44.10;;;21.45;;
66575;SDS011;53428;47.686;16.584;2023-12-20T03:57:06;62.00;;;24.33;;
66575;SDS011;53428;47.686;16.584;2023-12-20T04:02:05;68.95;;;22.50;;
66575;SDS011;53428;47.686;16.584;2023-12-20T04:07:05;47.60;;;20.40;;
66575;SDS011;53428;47.686;16.584;2023-12-20T04:12:04;57.20;;;22.15;;
66575;SDS011;53428;47.686;16.584;2023-12-20T04:17:04;56.65;;;23.42;;
66575;SDS011;53428;47.686;16.584;2023-12-20T04:22:03;76.90;;;22.85;;
66575;SDS011;53428;47.686;16.584;2023-12-20T04:27:03;52.70;;;23.73;;
66575;SDS011;53428;47.686;16.584;2023-12-20T04:32:02;62.35;;;25.35;;
66575;SDS011;53428;47.686;16.584;2023-12-20T04:37:01;57.70;;;25.42;;
66575;SDS011;53428;47.686;16.584;2023-12-20T04:42:01;57.05;;;25.13;;
66575;SDS011;53428;47.686;16.584;2023-12-20T04:47:00;53.53;;;23.42;;
66575;SDS011;53428;47.686;16.584;2023-12-20T04:52:00;58.58;;;23.33;;
66575;SDS011;53428;47.686;16.584;2023-12-20T04:56:59;52.58;;;23.15;;
66575;SDS011;53428;47.686;16.584;2023-12-20T05:01:58;49.53;;;20.00;;
66575;SDS011;53428;47.686;16.584;2023-12-20T05:06:58;45.80;;;20.27;;
66575;SDS011;53428;47.686;16.584;2023-12-20T05:11:57;42.88;;;21.00;;
66575;SDS011;53428;47.686;16.584;2023-12-20T05:16:56;50.72;;;23.65;;
66575;SDS011;53428;47.686;16.584;2023-12-20T05:21:55;49.08;;;21.90;;
66575;SDS011;53428;47.686;16.584;2023-12-20T05:26:55;43.85;;;22.17;;
66575;SDS011;53428;47.686;16.584;2023-12-20T05:31:54;47.15;;;20.90;;
66575;SDS011;53428;47.686;16.584;2023-12-20T05:36:53;40.92;;;20.08;;
66575;SDS011;53428;47.686;16.584;2023-12-20T05:41:52;55.40;;;24.88;;
66575;SDS011;53428;47.686;16.584;2023-12-20T05:46:52;47.72;;;22.55;;
66575;SDS011;53428;47.686;16.584;2023-12-20T05:51:51;58.13;;;23.75;;
66575;SDS011;53428;47.686;16.584;2023-12-20T05:56:50;49.15;;;21.65;;
66575;SDS011;53428;47.686;16.584;2023-12-20T06:01:49;44.28;;;20.52;;
66575;SDS011;53428;47.686;16.584;2023-12-20T06:06:48;40.80;;;22.83;;
66575;SDS011;53428;47.686;16.584;2023-12-20T06:11:48;49.58;;;21.88;;
66575;SDS011;53428;47.686;16.584;2023-12-20T06:16:47;49.17;;;25.63;;
66575;SDS011;53428;47.686;16.584;2023-12-20T06:21:46;74.45;;;31.33;;
66575;SDS011;53428;47.686;16.584;2023-12-20T06:26:45;94.72;;;40.00;;
66575;SDS011;53428;47.686;16.584;2023-12-20T06:31:45;69.35;;;30.73;;
66575;SDS011;53428;47.686;16.584;2023-12-20T06:36:44;87.90;;;33.25;;
66575;SDS011;53428;47.686;16.584;2023-12-20T06:41:43;43.80;;;23.20;;
66575;SDS011;53428;47.686;16.584;2023-12-20T06:46:43;48.40;;;27.08;;
66575;SDS011;53428;47.686;16.584;2023-12-20T06:51:42;65.90;;;28.95;;
66575;SDS011;53428;47.686;16.584;2023-12-20T06:56:41;43.75;;;24.45;;
66575;SDS011;53428;47.686;16.584;2023-12-20T07:01:41;43.28;;;23.02;;
66575;SDS011;53428;47.686;16.584;2023-12-20T07:06:40;48.42;;;23.98;;
66575;SDS011;53428;47.686;16.584;2023-12-20T07:11:39;46.75;;;23.95;;
66575;SDS011;53428;47.686;16.584;2023-12-20T07:16:39;52.75;;;27.58;;
66575;SDS011;53428;47.686;16.584;2023-12-20T07:21:39;48.35;;;23.50;;
66575;SDS011;53428;47.686;16.584;2023-12-20T07:26:39;35.45;;;19.83;;
66575;SDS011;53428;47.686;16.584;2023-12-20T07:31:39;36.05;;;18.83;;
66575;SDS011;53428;47.686;16.584;2023-12-20T07:36:38;41.97;;;20.70;;
66575;SDS011;53428;47.686;16.584;2023-12-20T07:41:37;56.22;;;28.73;;
66575;SDS011;53428;47.686;16.584;2023-12-20T07:46:36;54.90;;;29.00;;
66575;SDS011;53428;47.686;16.584;2023-12-20T07:51:36;36.47;;;21.35;;
66575;SDS011;53428;47.686;16.584;2023-12-20T07:56:35;41.92;;;23.63;;
66575;SDS011;53428;47.686;16.584;2023-12-20T08:01:39;53.28;;;26.58;;
66575;SDS011;53428;47.686;16.584;2023-12-20T08:06:40;88.97;;;36.55;;
66575;SDS011;53428;47.686;16.584;2023-12-20T08:11:40;51.60;;;27.40;;
66575;SDS011;53428;47.686;16.584;2023-12-20T08:16:44;46.00;;;22.35;;
66575;SDS011;53428;47.686;16.584;2023-12-20T08:21:43;45.45;;;22.25;;
66575;SDS011;53428;47.686;16.584;2023-12-20T08:26:42;56.67;;;31.02;;
66575;SDS011;53428;47.686;16.584;2023-12-20T08:31:41;46.95;;;25.02;;
66575;SDS011;53428;47.686;16.584;2023-12-20T08:36:40;50.42;;;27.85;;
66575;SDS011;53428;47.686;16.584;2023-12-20T08:41:40;51.88;;;25.83;;
66575;SDS011;53428;47.686;16.584;2023-12-20T08:46:39;59.03;;;29.88;;
66575;SDS011;53428;47.686;16.584;2023-12-20T08:51:40;78.40;;;34.70;;
66575;SDS011;53428;47.686;16.584;2023-12-20T08:56:40;73.40;;;33.90;;
66575;SDS011;53428;47.686;16.584;2023-12-20T09:01:39;72.63;;;32.28;;
66575;SDS011;53428;47.686;16.584;2023-12-20T09:06:39;75.82;;;32.35;;
66575;SDS011;53428;47.686;16.584;2023-12-20T09:11:38;60.05;;;29.90;;
66575;SDS011;53428;47.686;16.584;2023-12-20T09:16:37;55.05;;;27.45;;
66575;SDS011;53428;47.686;16.584;2023-12-20T09:21:36;55.85;;;25.88;;
66575;SDS011;53428;47.686;16.584;2023-12-20T09:26:35;53.10;;;28.40;;
66575;SDS011;53428;47.686;16.584;2023-12-20T09:31:36;45.72;;;24.05;;
66575;SDS011;53428;47.686;16.584;2023-12-20T09:36:35;49.80;;;25.95;;
66575;SDS011;53428;47.686;16.584;2023-12-20T09:41:36;50.50;;;29.85;;
66575;SDS011;53428;47.686;16.584;2023-12-20T09:46:38;61.35;;;30.75;;
66575;SDS011;53428;47.686;16.584;2023-12-20T09:51:42;56.13;;;32.03;;
66575;SDS011;53428;47.686;16.584;2023-12-20T09:56:42;59.17;;;33.78;;
66575;SDS011;53428;47.686;16.584;2023-12-20T10:01:43;62.53;;;34.50;;
66575;SDS011;53428;47.686;16.584;2023-12-20T10:06:44;97.50;;;41.17;;
66575;SDS011;53428;47.686;16.584;2023-12-20T10:11:44;105.90;;;41.13;;
66575;SDS011;53428;47.686;16.584;2023-12-20T10:16:45;152.40;;;56.03;;
66575;SDS011;53428;47.686;16.584;2023-12-20T10:21:44;143.43;;;55.90;;
66575;SDS011;53428;47.686;16.584;2023-12-20T10:26:44;143.07;;;57.20;;
66575;SDS011;53428;47.686;16.584;2023-12-20T10:31:43;124.38;;;53.30;;
66575;SDS011;53428;47.686;16.584;2023-12-20T10:36:45;129.23;;;51.55;;
66575;SDS011;53428;47.686;16.584;2023-12-20T10:41:44;118.25;;;46.38;;
66575;SDS011;53428;47.686;16.584;2023-12-20T10:46:44;79.32;;;38.03;;
66575;SDS011;53428;47.686;16.584;2023-12-20T10:51:49;95.90;;;43.83;;
66575;SDS011;53428;47.686;16.584;2023-12-20T10:56:51;113.53;;;47.90;;
66575;SDS011;53428;47.686;16.584;2023-12-20T11:01:51;187.18;;;64.43;;
66575;SDS011;53428;47.686;16.584;2023-12-20T11:06:56;75.95;;;41.03;;
66575;SDS011;53428;47.686;16.584;2023-12-20T11:17:15;85.88;;;43.85;;
66575;SDS011;53428;47.686;16.584;2023-12-20T11:22:15;94.38;;;41.53;;
66575;SDS011;53428;47.686;16.584;2023-12-20T11:27:14;91.00;;;44.65;;
66575;SDS011;53428;47.686;16.584;2023-12-20T11:37:30;88.40;;;43.85;;
66575;SDS011;53428;47.686;16.584;2023-12-20T11:42:37;92.90;;;46.08;;
66575;SDS011;53428;47.686;16.584;2023-12-20T11:47:37;88.32;;;40.65;;
66575;SDS011;53428;47.686;16.584;2023-12-20T11:52:37;70.18;;;32.55;;
66575;SDS011;53428;47.686;16.584;2023-12-20T11:57:36;38.05;;;19.58;;
66575;SDS011;53428;47.686;16.584;2023-12-20T12:02:36;15.18;;;8.45;;
66575;SDS011;53428;47.686;16.584;2023-12-20T12:07:35;2.17;;;1.50;;
66575;SDS011;53428;47.686;16.584;2023-12-20T12:12:34;0.98;;;0.80;;
66575;SDS011;53428;47.686;16.584;2023-12-20T12:17:34;0.50;;;0.50;;
66575;SDS011;53428;47.686;16.584;2023-12-20T12:22:33;2.10;;;0.90;;
66575;SDS011;53428;47.686;16.584;2023-12-20T12:27:32;0.82;;;0.60;;
66575;SDS011;53428;47.686;16.584;2023-12-20T12:32:32;0.30;;;0.30;;
66575;SDS011;53428;47.686;16.584;2023-12-20T12:37:31;0.63;;;0.43;;
66575;SDS011;53428;47.686;16.584;2023-12-20T12:42:32;1.40;;;0.80;;
66575;SDS011;53428;47.686;16.584;2023-12-20T12:47:31;3.75;;;0.75;;
66575;SDS011;53428;47.686;16.584;2023-12-20T12:52:31;0.70;;;0.70;;
66575;SDS011;53428;47.686;16.584;2023-12-20T12:57:30;0.85;;;0.70;;
66575;SDS011;53428;47.686;16.584;2023-12-20T13:02:29;1.00;;;0.90;;
66575;SDS011;53428;47.686;16.584;2023-12-20T13:07:29;1.40;;;1.30;;
66575;SDS011;53428;47.686;16.584;2023-12-20T13:12:28;4.45;;;2.00;;
66575;SDS011;53428;47.686;16.584;2023-12-20T13:17:28;2.35;;;1.80;;
66575;SDS011;53428;47.686;16.584;2023-12-20T13:22:27;3.38;;;2.28;;
66575;SDS011;53428;47.686;16.584;2023-12-20T13:27:26;9.80;;;4.78;;
66575;SDS011;53428;47.686;16.584;2023-12-20T13:32:26;3.05;;;2.08;;
66575;SDS011;53428;47.686;16.584;2023-12-20T13:37:25;2.47;;;1.70;;
66575;SDS011;53428;47.686;16.584;2023-12-20T13:42:24;1.45;;;0.85;;
66575;SDS011;53428;47.686;16.584;2023-12-20T13:47:26;0.50;;;0.50;;
66575;SDS011;53428;47.686;16.584;2023-12-20T13:52:25;0.98;;;0.50;;
66575;SDS011;53428;47.686;16.584;2023-12-20T13:57:24;4.28;;;1.65;;
66575;SDS011;53428;47.686;16.584;2023-12-20T14:02:23;4.90;;;0.98;;
66575;SDS011;53428;47.686;16.584;2023-12-20T14:07:22;3.50;;;1.90;;
66575;SDS011;53428;47.686;16.584;2023-12-20T14:12:21;1.17;;;1.08;;
66575;SDS011;53428;47.686;16.584;2023-12-20T14:17:21;2.78;;;1.63;;
66575;SDS011;53428;47.686;16.584;2023-12-20T14:22:20;3.20;;;1.60;;
66575;SDS011;53428;47.686;16.584;2023-12-20T14:27:19;2.78;;;1.48;;
66575;SDS011;53428;47.686;16.584;2023-12-20T14:32:21;7.57;;;4.10;;
66575;SDS011;53428;47.686;16.584;2023-12-20T14:37:21;7.60;;;3.05;;
66575;SDS011;53428;47.686;16.584;2023-12-20T14:42:20;1.52;;;1.20;;
66575;SDS011;53428;47.686;16.584;2023-12-20T14:47:21;3.88;;;2.63;;
66575;SDS011;53428;47.686;16.584;2023-12-20T14:52:20;2.30;;;1.38;;
66575;SDS011;53428;47.686;16.584;2023-12-20T14:57:19;5.53;;;2.10;;
66575;SDS011;53428;47.686;16.584;2023-12-20T15:02:18;4.35;;;2.33;;
66575;SDS011;53428;47.686;16.584;2023-12-20T15:07:17;2.78;;;1.63;;
66575;SDS011;53428;47.686;16.584;2023-12-20T15:12:18;1.83;;;1.05;;
66575;SDS011;53428;47.686;16.584;2023-12-20T15:17:17;0.68;;;0.68;;
66575;SDS011;53428;47.686;16.584;2023-12-20T15:22:16;1.55;;;1.00;;
66575;SDS011;53428;47.686;16.584;2023-12-20T15:27:15;2.53;;;1.60;;
66575;SDS011;53428;47.686;16.584;2023-12-20T15:32:14;7.88;;;3.92;;
66575;SDS011;53428;47.686;16.584;2023-12-20T15:37:14;12.57;;;7.28;;
66575;SDS011;53428;47.686;16.584;2023-12-20T15:42:13;11.57;;;7.05;;
66575;SDS011;53428;47.686;16.584;2023-12-20T15:47:12;4.80;;;3.28;;
66575;SDS011;53428;47.686;16.584;2023-12-20T15:52:11;3.50;;;2.50;;
66575;SDS011;53428;47.686;16.584;2023-12-20T15:57:10;3.30;;;2.75;;
66575;SDS011;53428;47.686;16.584;2023-12-20T16:02:09;18.45;;;8.13;;
66575;SDS011;53428;47.686;16.584;2023-12-20T16:07:09;9.85;;;3.88;;
66575;SDS011;53428;47.686;16.584;2023-12-20T16:12:08;9.52;;;4.47;;
66575;SDS011;53428;47.686;16.584;2023-12-20T16:17:07;8.73;;;5.85;;
66575;SDS011;53428;47.686;16.584;2023-12-20T16:22:07;16.77;;;10.20;;
66575;SDS011;53428;47.686;16.584;2023-12-20T16:27:06;24.35;;;13.85;;
66575;SDS011;53428;47.686;16.584;2023-12-20T16:32:05;29.88;;;18.27;;
66575;SDS011;53428;47.686;16.584;2023-12-20T16:37:05;44.05;;;23.52;;
66575;SDS011;53428;47.686;16.584;2023-12-20T16:42:04;36.33;;;20.23;;
66575;SDS011;53428;47.686;16.584;2023-12-20T16:47:04;36.70;;;19.13;;
66575;SDS011;53428;47.686;16.584;2023-12-20T16:52:03;31.80;;;17.30;;
66575;SDS011;53428;47.686;16.584;2023-12-20T16:57:03;21.45;;;12.48;;
66575;SDS011;53428;47.686;16.584;2023-12-20T17:02:05;15.20;;;9.75;;
66575;SDS011;53428;47.686;16.584;2023-12-20T17:07:04;13.07;;;8.10;;
66575;SDS011;53428;47.686;16.584;2023-12-20T17:12:04;10.88;;;5.20;;
66575;SDS011;53428;47.686;16.584;2023-12-20T17:17:04;2.67;;;1.35;;
66575;SDS011;53428;47.686;16.584;2023-12-20T17:22:03;0.80;;;0.80;;
66575;SDS011;53428;47.686;16.584;2023-12-20T17:27:03;1.30;;;0.85;;
66575;SDS011;53428;47.686;16.584;2023-12-20T17:32:03;1.20;;;1.10;;
66575;SDS011;53428;47.686;16.584;2023-12-20T17:37:04;1.73;;;1.30;;
66575;SDS011;53428;47.686;16.584;2023-12-20T17:42:03;1.75;;;1.60;;
66575;SDS011;53428;47.686;16.584;2023-12-20T17:47:03;2.28;;;1.75;;
66575;SDS011;53428;47.686;16.584;2023-12-20T17:52:02;9.80;;;5.90;;
66575;SDS011;53428;47.686;16.584;2023-12-20T17:57:04;58.13;;;28.98;;
66575;SDS011;53428;47.686;16.584;2023-12-20T18:02:04;14.93;;;8.30;;
66575;SDS011;53428;47.686;16.584;2023-12-20T18:07:04;7.28;;;4.82;;
66575;SDS011;53428;47.686;16.584;2023-12-20T18:12:03;4.88;;;3.40;;
66575;SDS011;53428;47.686;16.584;2023-12-20T18:17:05;4.65;;;3.30;;
66575;SDS011;53428;47.686;16.584;2023-12-20T18:22:05;6.40;;;3.90;;
66575;SDS011;53428;47.686;16.584;2023-12-20T18:27:05;8.95;;;6.00;;
66575;SDS011;53428;47.686;16.584;2023-12-20T18:32:05;7.32;;;4.72;;
66575;SDS011;53428;47.686;16.584;2023-12-20T18:37:05;18.00;;;9.35;;
66575;SDS011;53428;47.686;16.584;2023-12-20T18:42:08;12.65;;;7.82;;
66575;SDS011;53428;47.686;16.584;2023-12-20T18:47:08;13.05;;;7.85;;
66575;SDS011;53428;47.686;16.584;2023-12-20T18:52:08;11.63;;;6.57;;
66575;SDS011;53428;47.686;16.584;2023-12-20T18:57:08;35.80;;;12.15;;
66575;SDS011;53428;47.686;16.584;2023-12-20T19:02:08;9.80;;;5.18;;
66575;SDS011;53428;47.686;16.584;2023-12-20T19:07:10;4.05;;;2.97;;
66575;SDS011;53428;47.686;16.584;2023-12-20T19:12:10;1.48;;;1.10;;
66575;SDS011;53428;47.686;16.584;2023-12-20T19:17:10;1.48;;;1.38;;
66575;SDS011;53428;47.686;16.584;2023-12-20T19:22:11;3.78;;;1.90;;
66575;SDS011;53428;47.686;16.584;2023-12-20T19:27:11;18.00;;;6.47;;
66575;SDS011;53428;47.686;16.584;2023-12-20T19:32:11;17.30;;;7.13;;
66575;SDS011;53428;47.686;16.584;2023-12-20T19:37:11;16.65;;;8.13;;
66575;SDS011;53428;47.686;16.584;2023-12-20T19:42:11;6.97;;;3.88;;
66575;SDS011;53428;47.686;16.584;2023-12-20T19:47:11;3.47;;;1.25;;
66575;SDS011;53428;47.686;16.584;2023-12-20T19:52:11;1.73;;;1.15;;
66575;SDS011;53428;47.686;16.584;2023-12-20T19:57:12;1.17;;;1.10;;
66575;SDS011;53428;47.686;16.584;2023-12-20T20:02:14;16.88;;;6.72;;
66575;SDS011;53428;47.686;16.584;2023-12-20T20:07:15;5.82;;;3.88;;
66575;SDS011;53428;47.686;16.584;2023-12-20T20:12:18;2.13;;;0.98;;
66575;SDS011;53428;47.686;16.584;2023-12-20T20:17:18;1.85;;;1.20;;
66575;SDS011;53428;47.686;16.584;2023-12-20T20:22:19;1.65;;;0.90;;
66575;SDS011;53428;47.686;16.584;2023-12-20T20:27:19;1.52;;;1.00;;
66575;SDS011;53428;47.686;16.584;2023-12-20T20:32:21;0.73;;;0.65;;
66575;SDS011;53428;47.686;16.584;2023-12-20T20:37:21;0.80;;;0.63;;
66575;SDS011;53428;47.686;16.584;2023-12-20T20:42:21;1.10;;;0.82;;
66575;SDS011;53428;47.686;16.584;2023-12-20T20:47:21;2.38;;;1.30;;
66575;SDS011;53428;47.686;16.584;2023-12-20T20:52:21;0.80;;;0.80;;
66575;SDS011;53428;47.686;16.584;2023-12-20T20:57:21;1.85;;;1.00;;
66575;SDS011;53428;47.686;16.584;2023-12-20T21:02:21;1.55;;;0.75;;
66575;SDS011;53428;47.686;16.584;2023-12-20T21:07:20;1.40;;;0.80;;
66575;SDS011;53428;47.686;16.584;2023-12-20T21:12:19;2.10;;;0.70;;
66575;SDS011;53428;47.686;16.584;2023-12-20T21:17:18;1.90;;;0.90;;
66575;SDS011;53428;47.686;16.584;2023-12-20T21:22:17;0.82;;;0.70;;
66575;SDS011;53428;47.686;16.584;2023-12-20T21:27:17;0.70;;;0.70;;
66575;SDS011;53428;47.686;16.584;2023-12-20T21:32:16;2.70;;;1.50;;
66575;SDS011;53428;47.686;16.584;2023-12-20T21:37:15;1.73;;;1.10;;
66575;SDS011;53428;47.686;16.584;2023-12-20T21:42:14;1.20;;;0.82;;
66575;SDS011;53428;47.686;16.584;2023-12-20T21:47:14;2.33;;;1.25;;
66575;SDS011;53428;47.686;16.584;2023-12-20T21:52:13;1.10;;;1.00;;
66575;SDS011;53428;47.686;16.584;2023-12-20T21:57:13;1.27;;;1.13;;
66575;SDS011;53428;47.686;16.584;2023-12-20T22:02:12;3.55;;;1.20;;
66575;SDS011;53428;47.686;16.584;2023-12-20T22:07:12;1.58;;;1.20;;
66575;SDS011;53428;47.686;16.584;2023-12-20T22:12:12;1.75;;;1.00;;
66575;SDS011;53428;47.686;16.584;2023-12-20T22:17:11;2.33;;;0.90;;
66575;SDS011;53428;47.686;16.584;2023-12-20T22:22:10;2.05;;;0.98;;
66575;SDS011;53428;47.686;16.584;2023-12-20T22:27:09;2.88;;;1.20;;
66575;SDS011;53428;47.686;16.584;2023-12-20T22:32:09;2.83;;;0.90;;
66575;SDS011;53428;47.686;16.584;2023-12-20T22:37:08;1.88;;;0.90;;
66575;SDS011;53428;47.686;16.584;2023-12-20T22:42:07;1.55;;;0.80;;
66575;SDS011;53428;47.686;16.584;2023-12-20T22:47:06;1.70;;;0.70;;
66575;SDS011;53428;47.686;16.584;2023-12-20T22:52:08;1.38;;;0.80;;
66575;SDS011;53428;47.686;16.584;2023-12-20T22:57:08;5.22;;;0.98;;
66575;SDS011;53428;47.686;16.584;2023-12-20T23:02:07;0.70;;;0.50;;
66575;SDS011;53428;47.686;16.584;2023-12-20T23:13:21;2.55;;;0.70;;
66575;SDS011;53428;47.686;16.584;2023-12-20T23:18:20;0.55;;;0.50;;
66575;SDS011;53428;47.686;16.584;2023-12-20T23:23:19;1.58;;;0.75;;
66575;SDS011;53428;47.686;16.584;2023-12-20T23:28:19;1.23;;;0.88;;
66575;SDS011;53428;47.686;16.584;2023-12-20T23:33:18;0.68;;;0.68;;
66575;SDS011;53428;47.686;16.584;2023-12-20T23:38:17;0.60;;;0.60;;
66575;SDS011;53428;47.686;16.584;2023-12-20T23:43:17;3.60;;;0.63;;
66575;SDS011;53428;47.686;16.584;2023-12-20T23:48:16;1.85;;;1.15;;
66575;SDS011;53428;47.686;16.584;2023-12-20T23:53:15;1.25;;;0.90;;
66575;SDS011;53428;47.686;16.584;2023-12-20T23:58:15;2.45;;;0.80;;
